Time;durP1;ratioP1;P1;durP2;ratioP2;P2;SDS_P1;SDS_P2;PMS_P1;PMS_P2;Temp;Humidity;BMP_temperature;BMP_pressure;BME280_temperature;BME280_humidity;BME280_pressure;Samples;Min_cycle;Max_cycle;Signal;HPM_P1;HPM_P2
2023/01/06 00:01:44;;;;;;;2.05;0.65;;;4.90;99.90;;;;;;2603259;54;20089;31
2023/01/06 00:04:20;;;;;;;3.15;1.00;;;5.00;99.90;;;;;;2621856;46;20172;31
2023/01/06 00:06:55;;;;;;;3.30;0.70;;;4.90;99.90;;;;;;2603231;54;20807;31
2023/01/06 00:09:32;;;;;;;4.30;1.13;;;4.80;99.90;;;;;;2719921;39;20441;31
2023/01/06 00:12:09;;;;;;;3.60;1.17;;;4.80;99.90;;;;;;2603221;54;20920;31
2023/01/06 00:14:45;;;;;;;3.63;1.45;;;4.80;99.90;;;;;;2603206;54;20827;31
2023/01/06 00:17:23;;;;;;;4.50;1.10;;;4.80;99.90;;;;;;2602450;54;20117;31
2023/01/06 00:19:58;;;;;;;2.67;0.90;;;4.70;99.90;;;;;;2603155;54;20038;31
2023/01/06 00:22:33;;;;;;;4.55;1.20;;;4.70;99.90;;;;;;2602292;54;20026;31
2023/01/06 00:25:12;;;;;;;5.82;1.48;;;4.70;99.90;;;;;;2603287;54;20062;31
2023/01/06 00:27:49;;;;;;;3.25;0.80;;;4.70;99.90;;;;;;2621367;46;20089;31
2023/01/06 00:30:24;;;;;;;5.50;1.50;;;4.60;99.90;;;;;;2603229;54;20808;31
2023/01/06 00:33:02;;;;;;;5.45;1.25;;;4.70;99.90;;;;;;2603447;54;20546;31
2023/01/06 00:35:37;;;;;;;3.13;1.17;;;4.60;99.90;;;;;;2603308;54;20030;31
2023/01/06 00:38:15;;;;;;;3.88;1.00;;;4.60;99.90;;;;;;2602960;54;20029;31
2023/01/06 00:40:53;;;;;;;3.17;0.90;;;4.60;99.90;;;;;;2603098;54;19958;31
2023/01/06 00:43:31;;;;;;;2.75;1.30;;;4.60;99.90;;;;;;2603168;54;20892;31
2023/01/06 00:46:07;;;;;;;3.55;1.05;;;4.60;99.90;;;;;;2603044;54;20100;31
2023/01/06 00:48:47;;;;;;;4.45;1.00;;;4.60;99.90;;;;;;2603220;54;20096;31
2023/01/06 00:51:41;;;;;;;3.85;1.30;;;4.60;99.90;;;;;;2603306;54;20022;31
2023/01/06 00:54:19;;;;;;;2.47;0.97;;;4.60;99.90;;;;;;2603162;54;20023;31
2023/01/06 00:56:55;;;;;;;3.42;0.75;;;4.50;99.90;;;;;;2602303;54;20872;31
2023/01/06 00:59:30;;;;;;;5.82;1.70;;;4.50;99.90;;;;;;2615547;46;22362;31
2023/01/06 01:02:08;;;;;;;2.70;0.70;;;4.50;99.90;;;;;;2602101;54;20873;31
2023/01/06 01:04:50;;;;;;;2.37;0.70;;;4.50;99.90;;;;;;2603015;54;20998;31
2023/01/06 01:07:26;;;;;;;3.95;1.00;;;4.40;99.90;;;;;;2603279;54;20050;31
2023/01/06 01:10:02;;;;;;;3.20;1.25;;;4.50;99.90;;;;;;2603320;54;20873;31
2023/01/06 01:12:39;;;;;;;;;;;4.40;99.90;;;;;;2603236;54;20947;31
2023/01/06 01:15:17;;;;;;;2.55;0.70;;;4.40;99.90;;;;;;2603118;54;19934;31
2023/01/06 01:17:57;;;;;;;4.53;0.80;;;4.30;99.90;;;;;;2621405;46;20089;31
2023/01/06 01:20:35;;;;;;;3.92;0.93;;;4.30;99.90;;;;;;2603087;54;20943;31
2023/01/06 01:23:10;;;;;;;4.55;1.25;;;4.30;99.90;;;;;;2603128;54;20932;31
2023/01/06 01:25:46;;;;;;;4.80;1.45;;;4.20;99.90;;;;;;2603259;54;20029;31
2023/01/06 01:28:21;;;;;;;6.18;1.30;;;4.20;99.90;;;;;;2603270;54;25044;31
2023/01/06 01:31:02;;;;;;;6.53;1.63;;;4.20;99.90;;;;;;2602997;54;20030;31
2023/01/06 01:33:37;;;;;;;7.20;1.55;;;4.00;99.90;;;;;;2603017;54;20030;31
2023/01/06 01:36:18;;;;;;;5.10;1.60;;;4.00;99.90;;;;;;2603748;54;20791;31
2023/01/06 01:38:53;;;;;;;6.00;1.60;;;3.90;99.90;;;;;;2621762;46;20072;31
2023/01/06 01:41:28;;;;;;;6.63;1.25;;;3.90;99.90;;;;;;2603846;54;20050;31
2023/01/06 01:44:06;;;;;;;5.18;1.38;;;3.90;99.90;;;;;;2622054;46;20806;31
2023/01/06 01:46:42;;;;;;;4.35;1.20;;;3.80;99.90;;;;;;2603900;54;20837;31
2023/01/06 01:49:19;;;;;;;4.78;1.35;;;3.80;99.90;;;;;;2603936;54;20066;31
2023/01/06 01:51:58;;;;;;;3.25;1.20;;;3.80;99.90;;;;;;2604134;54;20821;31
2023/01/06 01:54:34;;;;;;;3.75;1.00;;;3.80;99.90;;;;;;2621990;46;20109;31
2023/01/06 01:57:11;;;;;;;4.43;1.23;;;3.80;99.90;;;;;;2603810;54;19935;31
2023/01/06 01:59:48;;;;;;;3.58;1.20;;;3.80;99.90;;;;;;2603611;54;21007;31
2023/01/06 02:02:24;;;;;;;6.90;1.50;;;3.80;99.90;;;;;;2603689;54;20052;31
2023/01/06 02:05:00;;;;;;;;;;;3.80;99.90;;;;;;2621869;46;20102;31
2023/01/06 02:07:38;;;;;;;3.80;1.40;;;3.80;99.90;;;;;;2603741;54;20739;31
2023/01/06 02:10:15;;;;;;;4.80;1.52;;;3.90;99.90;;;;;;2603877;54;20085;31
2023/01/06 02:12:54;;;;;;;5.30;1.60;;;3.90;99.90;;;;;;2602994;54;20031;31
2023/01/06 02:15:31;;;;;;;4.57;1.35;;;3.90;99.90;;;;;;2603467;54;20939;31
2023/01/06 02:18:51;;;;;;;4.55;1.15;;;3.90;99.90;;;;;;2603546;54;20978;31
2023/01/06 02:24:30;;;;;;;5.60;1.83;;;3.90;99.90;;;;;;2622502;46;20033;31
2023/01/06 02:27:33;;;;;;;4.00;1.17;;;3.90;99.90;;;;;;2603586;54;20080;31
2023/01/06 02:31:00;;;;;;;4.75;1.27;;;3.90;99.90;;;;;;2603723;54;20026;31
2023/01/06 02:33:42;;;;;;;5.25;1.88;;;3.90;99.90;;;;;;2621652;46;22374;31
2023/01/06 02:36:23;;;;;;;4.97;1.30;;;3.90;99.90;;;;;;2603510;54;20084;31
2023/01/06 02:39:03;;;;;;;7.40;1.50;;;3.90;99.90;;;;;;2603609;54;20027;31
2023/01/06 02:41:43;;;;;;;3.22;1.08;;;3.90;99.90;;;;;;2622279;46;20022;31
2023/01/06 02:44:21;;;;;;;3.40;1.60;;;3.90;99.90;;;;;;2603633;54;20882;31
2023/01/06 02:46:55;;;;;;;4.97;1.77;;;3.90;99.90;;;;;;2603508;54;20049;31
2023/01/06 02:49:40;;;;;;;5.97;1.33;;;3.90;99.90;;;;;;2603612;54;20035;31
2023/01/06 02:52:19;;;;;;;4.23;1.30;;;3.90;99.90;;;;;;2603374;54;20004;31
2023/01/06 02:54:57;;;;;;;3.78;1.10;;;3.80;99.90;;;;;;2603685;54;20050;31
2023/01/06 02:57:34;;;;;;;2.33;0.97;;;3.80;99.90;;;;;;2603554;54;20104;31
2023/01/06 03:00:13;;;;;;;2.15;1.02;;;3.80;99.90;;;;;;2603465;54;20077;31
2023/01/06 03:02:49;;;;;;;5.75;1.50;;;3.80;99.90;;;;;;2603466;54;20030;31
2023/01/06 03:05:28;;;;;;;;;;;3.80;99.90;;;;;;2603916;54;19957;31
2023/01/06 03:08:02;;;;;;;3.35;1.25;;;3.80;99.90;;;;;;2603560;54;20745;31
2023/01/06 03:10:38;;;;;;;4.20;1.40;;;3.80;99.90;;;;;;2621312;46;20849;31
2023/01/06 03:13:16;;;;;;;3.80;1.87;;;3.70;99.90;;;;;;2603487;54;20184;31
2023/01/06 03:15:54;;;;;;;3.40;1.15;;;3.70;99.90;;;;;;2603384;54;20847;31
2023/01/06 03:18:29;;;;;;;4.22;1.15;;;3.60;99.90;;;;;;2702166;39;22350;31
2023/01/06 03:21:08;;;;;;;;;;;3.60;99.90;;;;;;2603538;54;20769;31
2023/01/06 03:23:44;;;;;;;2.75;0.90;;;3.60;99.90;;;;;;2621783;46;20458;31
2023/01/06 03:26:21;;;;;;;4.70;1.10;;;3.60;99.90;;;;;;2603421;54;21009;31
2023/01/06 03:28:58;;;;;;;3.75;0.90;;;3.50;99.90;;;;;;2603365;54;20054;31
2023/01/06 03:31:35;;;;;;;3.67;1.10;;;3.50;99.90;;;;;;2603393;54;21029;31
2023/01/06 03:34:14;;;;;;;2.45;1.05;;;3.50;99.90;;;;;;2621486;46;20029;31
2023/01/06 03:36:56;;;;;;;3.35;1.23;;;3.50;99.90;;;;;;2603270;54;20048;31
2023/01/06 03:39:36;;;;;;;6.25;1.50;;;3.50;99.90;;;;;;2602650;54;20883;31
2023/01/06 03:45:11;;;;;;;2.88;0.93;;;3.40;99.90;;;;;;2603305;54;20056;31
2023/01/06 03:47:52;;;;;;;5.00;1.30;;;3.40;99.90;;;;;;2603350;54;20801;31
2023/01/06 03:50:32;;;;;;;6.07;1.50;;;3.30;99.90;;;;;;2603298;54;20029;31
2023/01/06 03:53:17;;;;;;;4.50;1.77;;;3.40;99.90;;;;;;2603223;54;20798;31
2023/01/06 03:55:56;;;;;;;4.97;1.30;;;3.20;99.90;;;;;;2603443;54;20026;31
2023/01/06 03:58:31;;;;;;;3.90;1.40;;;3.20;99.90;;;;;;2621117;46;20766;31
2023/01/06 04:01:07;;;;;;;5.97;1.52;;;3.20;99.90;;;;;;2603131;54;20029;31
2023/01/06 04:03:45;;;;;;;5.50;1.50;;;3.20;99.90;;;;;;2603251;54;20045;31
2023/01/06 04:06:21;;;;;;;3.80;1.50;;;3.20;99.90;;;;;;2621798;46;20033;31
2023/01/06 04:08:58;;;;;;;4.63;1.60;;;3.30;99.90;;;;;;2603214;54;20092;31
2023/01/06 04:14:39;;;;;;;3.00;1.30;;;3.30;99.90;;;;;;2602915;54;20819;31
2023/01/06 04:17:13;;;;;;;3.20;1.60;;;3.20;99.90;;;;;;2617188;46;21143;31
2023/01/06 04:19:50;;;;;;;4.63;1.73;;;3.20;99.90;;;;;;2603373;54;20073;31
2023/01/06 04:22:27;;;;;;;3.28;1.45;;;3.30;99.90;;;;;;2603348;54;20034;31
2023/01/06 04:25:05;;;;;;;4.03;1.45;;;3.30;99.90;;;;;;2603441;54;20808;31
2023/01/06 04:27:41;;;;;;;3.87;1.70;;;3.30;99.90;;;;;;2603194;54;20112;31
2023/01/06 04:30:20;;;;;;;;;;;3.40;99.90;;;;;;2603377;54;20081;31
2023/01/06 04:32:56;;;;;;;4.47;2.07;;;3.40;99.90;;;;;;2603269;54;20014;31
2023/01/06 04:35:31;;;;;;;4.50;2.25;;;3.30;99.90;;;;;;2603446;54;20033;31
2023/01/06 04:38:08;;;;;;;7.60;1.92;;;3.30;99.90;;;;;;2603086;54;20030;31
2023/01/06 04:40:46;;;;;;;;;;;3.40;99.90;;;;;;2603626;54;20034;31
2023/01/06 04:43:24;;;;;;;3.88;1.75;;;3.30;99.90;;;;;;2602417;54;20821;31
2023/01/06 04:46:00;;;;;;;5.07;1.65;;;3.40;99.90;;;;;;2603131;54;20808;31
2023/01/06 04:48:36;;;;;;;4.75;2.40;;;3.40;99.90;;;;;;2603098;54;20799;31
2023/01/06 04:51:11;;;;;;;5.82;2.22;;;3.40;99.90;;;;;;2719666;39;22378;31
2023/01/06 04:53:47;;;;;;;8.40;2.38;;;3.30;99.90;;;;;;2603080;54;20097;31
2023/01/06 04:56:25;;;;;;;7.30;2.30;;;3.40;99.90;;;;;;2603099;54;20801;31
2023/01/06 04:59:00;;;;;;;5.25;2.40;;;3.40;99.90;;;;;;2603330;54;20030;31
2023/01/06 05:01:36;;;;;;;5.85;1.80;;;3.40;99.90;;;;;;2621644;46;20029;31
2023/01/06 05:04:11;;;;;;;5.00;2.20;;;3.40;99.90;;;;;;2603121;54;20097;31
2023/01/06 05:06:49;;;;;;;8.73;2.65;;;3.40;99.90;;;;;;2603260;54;20120;31
2023/01/06 05:09:24;;;;;;;7.53;2.10;;;3.40;99.90;;;;;;2603126;54;20053;31
2023/01/06 05:12:03;;;;;;;6.13;2.47;;;3.50;99.90;;;;;;2602987;54;20880;31
2023/01/06 05:14:44;;;;;;;5.55;2.42;;;3.40;99.90;;;;;;2603024;54;20929;31
2023/01/06 05:17:20;;;;;;;6.65;2.78;;;3.50;99.90;;;;;;2602250;54;20036;31
2023/01/06 05:19:56;;;;;;;5.87;1.80;;;3.50;99.90;;;;;;2602874;54;20030;31
2023/01/06 05:22:33;;;;;;;4.90;1.98;;;3.50;99.90;;;;;;2621368;47;20361;31
2023/01/06 05:25:10;;;;;;;6.13;3.30;;;3.50;99.90;;;;;;2602896;54;20149;31
2023/01/06 05:27:47;;;;;;;5.63;1.88;;;3.50;99.90;;;;;;2602192;54;20057;31
2023/01/06 05:30:26;;;;;;;6.27;2.10;;;3.50;99.90;;;;;;2602930;54;20035;31
2023/01/06 05:33:02;;;;;;;9.27;3.03;;;3.50;99.90;;;;;;2602921;54;20154;31
2023/01/06 05:35:37;;;;;;;;;;;3.50;99.90;;;;;;2621713;47;20030;31
2023/01/06 05:38:12;;;;;;;5.30;2.70;;;3.60;99.90;;;;;;2603184;54;20820;31
2023/01/06 05:40:47;;;;;;;4.27;2.60;;;3.50;99.90;;;;;;2602661;54;20033;31
2023/01/06 05:43:25;;;;;;;6.75;2.47;;;3.50;99.90;;;;;;2621359;47;20791;31
2023/01/06 05:46:00;;;;;;;3.55;2.00;;;3.50;99.90;;;;;;2603093;54;20034;31
2023/01/06 05:48:35;;;;;;;5.93;2.15;;;3.50;99.90;;;;;;2602863;54;20026;31
2023/01/06 05:51:12;;;;;;;4.63;1.90;;;3.50;99.90;;;;;;2603092;54;20554;31
2023/01/06 05:53:48;;;;;;;5.63;1.67;;;3.50;99.90;;;;;;2603168;54;20022;31
2023/01/06 05:56:23;;;;;;;4.70;1.67;;;3.50;99.90;;;;;;2616186;47;20081;31
2023/01/06 05:59:06;;;;;;;5.50;2.38;;;3.50;99.90;;;;;;2602876;54;20098;31
2023/01/06 06:01:41;;;;;;;7.13;3.05;;;3.50;99.90;;;;;;2602955;54;20882;31
2023/01/06 06:04:18;;;;;;;32.67;16.95;;;3.50;99.90;;;;;;2602609;54;21346;31
2023/01/06 06:06:53;;;;;;;14.35;8.93;;;3.50;99.90;;;;;;2603110;54;20030;31
2023/01/06 06:09:29;;;;;;;6.68;3.95;;;3.50;99.90;;;;;;2602595;54;20942;31
2023/01/06 06:12:05;;;;;;;6.17;3.43;;;3.50;99.90;;;;;;2603006;54;20078;31
2023/01/06 06:14:45;;;;;;;6.55;2.90;;;3.50;99.90;;;;;;2602756;54;20072;31
2023/01/06 06:17:20;;;;;;;4.78;2.47;;;3.50;99.90;;;;;;2602812;54;20908;31
2023/01/06 06:19:57;;;;;;;3.50;2.03;;;3.50;99.90;;;;;;2602768;54;20046;31
2023/01/06 06:22:32;;;;;;;5.57;2.22;;;3.50;99.90;;;;;;2603592;54;20026;31
2023/01/06 06:25:10;;;;;;;6.23;4.00;;;3.50;99.90;;;;;;2603653;54;20030;31
2023/01/06 06:27:47;;;;;;;5.82;3.45;;;3.50;99.90;;;;;;2603894;54;20117;31
2023/01/06 06:30:25;;;;;;;6.10;3.65;;;3.60;99.90;;;;;;2603861;54;20797;31
2023/01/06 06:33:02;;;;;;;5.30;2.50;;;3.50;99.90;;;;;;2702157;39;20500;31
2023/01/06 06:35:38;;;;;;;6.97;2.83;;;3.60;99.90;;;;;;2603676;54;20882;31
2023/01/06 06:38:14;;;;;;;4.90;3.13;;;3.60;99.90;;;;;;2622175;46;20048;31
2023/01/06 06:40:50;;;;;;;6.53;3.20;;;3.50;99.90;;;;;;2603686;54;20846;31
2023/01/06 06:43:28;;;;;;;8.20;3.70;;;3.50;99.90;;;;;;2603391;54;20995;31
2023/01/06 06:46:07;;;;;;;8.27;3.25;;;3.50;99.90;;;;;;2603506;54;20136;31
2023/01/06 06:48:44;;;;;;;4.90;3.35;;;3.50;99.90;;;;;;2603581;54;20929;31
2023/01/06 06:51:20;;;;;;;6.73;3.50;;;3.60;99.90;;;;;;2603594;54;20022;31
2023/01/06 06:53:57;;;;;;;;;;;3.50;99.90;;;;;;2622327;46;20034;31
2023/01/06 06:56:33;;;;;;;6.70;3.42;;;3.50;99.90;;;;;;2603379;54;19993;31
2023/01/06 06:59:09;;;;;;;8.88;3.45;;;3.50;99.90;;;;;;2621967;46;20050;31
2023/01/06 07:01:47;;;;;;;9.73;6.53;;;3.50;99.90;;;;;;2603559;54;20090;31
2023/01/06 07:04:30;;;;;;;13.93;9.68;;;3.50;99.90;;;;;;2602663;54;20042;31
2023/01/06 07:07:06;;;;;;;9.73;5.40;;;3.50;99.90;;;;;;2603426;54;20908;31
2023/01/06 07:09:42;;;;;;;6.70;3.90;;;3.40;99.90;;;;;;2603587;54;20893;31
2023/01/06 07:12:17;;;;;;;10.70;4.10;;;3.40;99.90;;;;;;2603693;54;20007;31
2023/01/06 07:14:52;;;;;;;7.57;4.00;;;3.40;99.90;;;;;;2603339;54;20197;31
2023/01/06 07:17:32;;;;;;;7.03;3.40;;;3.40;99.90;;;;;;2621579;46;20028;31
2023/01/06 07:20:08;;;;;;;6.45;3.45;;;3.40;99.90;;;;;;2622057;46;20022;31
2023/01/06 07:22:46;;;;;;;8.30;4.03;;;3.40;99.90;;;;;;2603474;54;20063;31
2023/01/06 07:25:23;;;;;;;7.65;3.85;;;3.30;99.90;;;;;;2603748;54;20050;31
2023/01/06 07:27:59;;;;;;;9.15;4.45;;;3.30;99.90;;;;;;2603188;54;20116;31
2023/01/06 07:30:34;;;;;;;6.22;3.58;;;3.30;99.90;;;;;;2603566;54;20026;31
2023/01/06 07:33:14;;;;;;;9.30;4.65;;;3.30;99.90;;;;;;2603330;54;20023;31
2023/01/06 07:35:50;;;;;;;5.90;3.10;;;3.30;99.90;;;;;;2603579;54;20048;31
2023/01/06 07:38:30;;;;;;;7.65;3.15;;;3.30;99.90;;;;;;2615221;46;20022;31
2023/01/06 07:41:05;;;;;;;7.25;3.65;;;3.30;99.90;;;;;;2603607;54;20081;31
2023/01/06 07:43:41;;;;;;;5.35;3.00;;;3.30;99.90;;;;;;2603325;54;20958;31
2023/01/06 07:46:16;;;;;;;8.05;3.20;;;3.30;99.90;;;;;;2603529;54;20866;31
2023/01/06 07:48:54;;;;;;;9.48;4.00;;;3.30;99.90;;;;;;2603518;54;20034;31
2023/01/06 07:51:30;;;;;;;8.83;3.53;;;3.30;99.90;;;;;;2603430;54;20117;31
2023/01/06 07:54:06;;;;;;;7.53;3.50;;;3.30;99.90;;;;;;2603305;54;20042;31
2023/01/06 07:56:44;;;;;;;5.78;2.90;;;3.30;99.90;;;;;;2603309;54;20113;31
2023/01/06 07:59:22;;;;;;;7.95;2.75;;;3.30;99.90;;;;;;2602521;54;20836;31
2023/01/06 08:01:57;;;;;;;4.45;3.05;;;3.30;99.90;;;;;;2603432;54;20041;31
2023/01/06 08:04:38;;;;;;;4.53;2.65;;;3.30;99.90;;;;;;2603269;54;20816;31
2023/01/06 08:07:15;;;;;;;4.50;2.40;;;3.30;99.90;;;;;;2603411;54;20819;31
2023/01/06 08:09:55;;;;;;;5.47;2.53;;;3.30;99.90;;;;;;2603510;54;20030;31
2023/01/06 08:12:33;;;;;;;5.93;3.20;;;3.30;99.90;;;;;;2603427;54;20030;31
2023/01/06 08:15:12;;;;;;;7.38;3.10;;;3.30;99.90;;;;;;2603520;54;20022;31
2023/01/06 08:17:48;;;;;;;5.35;3.67;;;3.30;99.90;;;;;;2621501;46;20807;31
2023/01/06 08:20:29;;;;;;;6.30;3.23;;;3.30;99.90;;;;;;2603421;54;20026;31
2023/01/06 08:23:04;;;;;;;10.88;4.07;;;3.30;99.90;;;;;;2603016;54;20049;31
2023/01/06 08:25:42;;;;;;;11.03;4.90;;;3.20;99.90;;;;;;2603212;54;20031;31
2023/01/06 08:28:19;;;;;;;7.85;3.60;;;3.30;99.90;;;;;;2603378;54;20029;31
2023/01/06 08:30:55;;;;;;;11.85;6.63;;;3.30;99.90;;;;;;2621657;46;20054;31
2023/01/06 08:33:30;;;;;;;8.68;4.75;;;3.40;99.90;;;;;;2603342;54;20023;31
2023/01/06 08:36:09;;;;;;;15.55;6.32;;;3.50;99.90;;;;;;2603136;54;20891;31
2023/01/06 08:38:47;;;;;;;9.57;4.38;;;3.50;99.90;;;;;;2603307;54;20026;31
2023/01/06 08:41:22;;;;;;;15.40;6.20;;;3.50;99.90;;;;;;2603250;54;20601;31
2023/01/06 08:43:57;;;;;;;12.68;5.43;;;3.60;99.90;;;;;;2603264;54;20910;31
2023/01/06 08:46:34;;;;;;;11.45;5.65;;;3.60;99.90;;;;;;2603149;54;20085;31
2023/01/06 08:49:10;;;;;;;8.57;4.80;;;3.60;99.90;;;;;;2603408;54;20023;31
2023/01/06 08:51:51;;;;;;;7.20;3.95;;;3.70;99.90;;;;;;2603420;54;20862;31
2023/01/06 08:54:29;;;;;;;9.25;3.83;;;3.60;99.90;;;;;;2602939;54;20049;31
2023/01/06 08:57:07;;;;;;;7.10;3.80;;;3.60;99.90;;;;;;2603204;54;20022;31
2023/01/06 08:59:45;;;;;;;9.60;3.90;;;3.60;99.90;;;;;;2603060;54;20602;31
2023/01/06 09:02:26;;;;;;;6.57;3.47;;;3.60;99.90;;;;;;2603118;54;20034;31
2023/01/06 09:05:24;;;;;;;8.02;3.55;;;3.60;99.90;;;;;;2602998;54;20854;31
2023/01/06 09:08:05;;;;;;;7.18;4.55;;;3.60;99.90;;;;;;2602845;54;20042;31
2023/01/06 09:10:41;;;;;;;7.35;4.20;;;3.70;99.90;;;;;;2603090;54;20852;31
2023/01/06 09:13:18;;;;;;;8.30;5.32;;;3.70;99.90;;;;;;2603052;54;20030;31
2023/01/06 09:15:54;;;;;;;10.55;6.00;;;3.80;99.90;;;;;;2603156;54;20029;31
2023/01/06 09:18:31;;;;;;;9.85;6.88;;;3.80;99.90;;;;;;2602544;54;20058;31
2023/01/06 09:21:08;;;;;;;10.07;6.35;;;3.90;99.90;;;;;;2603159;54;20026;31
2023/01/06 09:23:49;;;;;;;6.90;4.90;;;4.00;99.90;;;;;;2621268;47;20859;31
2023/01/06 09:26:26;;;;;;;7.40;4.70;;;4.00;99.90;;;;;;2603357;54;20023;31
2023/01/06 09:29:02;;;;;;;8.82;4.90;;;4.00;99.90;;;;;;2603196;54;20081;31
2023/01/06 09:31:38;;;;;;;8.32;4.82;;;4.10;99.90;;;;;;2603310;47;20140;31
2023/01/06 09:34:14;;;;;;;7.00;4.00;;;4.10;99.90;;;;;;2603029;54;20846;31
2023/01/06 09:36:52;;;;;;;11.90;6.75;;;4.10;99.90;;;;;;2602688;54;20026;31
2023/01/06 09:39:33;;;;;;;15.63;6.75;;;4.20;99.90;;;;;;2603124;54;20026;31
2023/01/06 09:42:24;;;;;;;16.23;6.82;;;4.20;99.90;;;;;;2603021;54;20120;31
2023/01/06 09:45:03;;;;;;;15.55;6.78;;;4.20;99.90;;;;;;2602727;54;20576;31
2023/01/06 09:47:42;;;;;;;14.77;7.15;;;4.20;99.90;;;;;;2621050;47;20023;31
2023/01/06 09:50:19;;;;;;;23.55;12.85;;;4.20;99.90;;;;;;2621325;47;20022;31
2023/01/06 09:52:57;;;;;;;17.43;8.77;;;4.20;99.90;;;;;;2602106;54;20050;31
2023/01/06 09:55:38;;;;;;;9.20;4.13;;;4.20;99.90;;;;;;2621266;47;20297;31
2023/01/06 09:58:15;;;;;;;10.40;5.40;;;4.10;99.90;;;;;;2603353;54;20920;31
2023/01/06 10:00:54;;;;;;;19.52;6.13;;;4.20;99.90;;;;;;2603910;54;20067;31
2023/01/06 10:03:30;;;;;;;16.88;6.05;;;4.30;99.90;;;;;;2603840;54;20947;31
2023/01/06 10:06:14;;;;;;;10.70;5.00;;;4.20;99.90;;;;;;2603645;54;20030;31
2023/01/06 10:08:53;;;;;;;9.95;4.60;;;4.20;99.90;;;;;;2622088;46;20054;31
2023/01/06 10:11:35;;;;;;;14.20;5.63;;;4.20;99.90;;;;;;2603560;54;20073;31
2023/01/06 10:14:14;;;;;;;13.52;5.05;;;4.20;99.90;;;;;;2702399;39;20386;31
2023/01/06 10:17:00;;;;;;;20.77;10.05;;;4.10;99.90;;;;;;2602833;54;20026;31
2023/01/06 10:19:46;;;;;;;16.35;7.07;;;4.20;99.90;;;;;;2603604;54;20868;31
2023/01/06 10:22:27;;;;;;;20.88;12.00;;;4.30;99.90;;;;;;2603827;54;20022;31
2023/01/06 10:25:05;;;;;;;24.67;8.47;;;4.30;99.90;;;;;;2603583;54;20026;31
2023/01/06 10:27:48;;;;;;;11.90;4.60;;;4.30;99.90;;;;;;2603850;54;20026;31
2023/01/06 10:30:25;;;;;;;11.60;5.60;;;4.40;99.90;;;;;;2603656;54;20470;31
2023/01/06 10:33:07;;;;;;;10.45;4.40;;;4.40;99.90;;;;;;2603795;54;20831;31
2023/01/06 10:35:43;;;;;;;9.30;4.80;;;4.40;99.90;;;;;;2602810;54;20152;31
2023/01/06 10:38:22;;;;;;;10.30;5.10;;;4.50;99.90;;;;;;2602828;54;20874;31
2023/01/06 10:40:58;;;;;;;11.80;3.95;;;4.50;99.90;;;;;;2603797;54;20050;31
2023/01/06 10:43:36;;;;;;;9.77;4.35;;;4.50;99.90;;;;;;2603695;54;20026;31
2023/01/06 10:46:12;;;;;;;10.85;4.95;;;4.60;99.90;;;;;;2603620;54;20133;31
2023/01/06 10:48:48;;;;;;;5.55;3.25;;;4.60;99.90;;;;;;2608816;46;20026;31
2023/01/06 10:51:37;;;;;;;13.48;4.68;;;4.60;99.90;;;;;;2603826;54;20577;31
2023/01/06 10:54:14;;;;;;;13.95;4.55;;;4.70;99.90;;;;;;2603673;54;20022;31
2023/01/06 10:56:50;;;;;;;8.50;4.40;;;4.70;99.90;;;;;;2603640;54;20913;31
2023/01/06 10:59:30;;;;;;;12.15;4.05;;;4.80;99.90;;;;;;2702281;39;20658;31
2023/01/06 11:02:05;;;;;;;8.75;4.13;;;4.80;99.90;;;;;;2603619;54;20648;31
2023/01/06 11:04:40;;;;;;;9.57;4.20;;;4.80;99.90;;;;;;2617549;46;20085;31
2023/01/06 11:07:17;;;;;;;8.95;3.67;;;4.80;99.90;;;;;;2603422;54;20031;31
2023/01/06 11:09:54;;;;;;;6.00;4.00;;;4.90;99.90;;;;;;2603695;54;20850;31
2023/01/06 11:12:31;;;;;;;10.35;4.22;;;4.90;99.90;;;;;;2603386;54;20057;31
2023/01/06 11:15:10;;;;;;;6.03;4.28;;;5.00;99.90;;;;;;2603423;54;20920;31
2023/01/06 11:17:47;;;;;;;12.80;6.57;;;5.00;99.90;;;;;;2603644;54;20166;31
2023/01/06 11:20:32;;;;;;;8.80;5.10;;;5.10;99.90;;;;;;2603329;54;20084;31
2023/01/06 11:23:15;;;;;;;13.30;5.75;;;5.20;99.90;;;;;;2621974;46;20141;31
2023/01/06 11:26:10;;;;;;;8.15;4.70;;;5.30;99.90;;;;;;2603374;54;20932;31
2023/01/06 11:28:45;;;;;;;10.95;5.43;;;5.30;99.90;;;;;;2701788;39;20434;31
2023/01/06 11:31:21;;;;;;;8.20;4.50;;;5.30;99.90;;;;;;2603423;54;20902;31
2023/01/06 11:34:00;;;;;;;11.75;4.97;;;5.40;99.90;;;;;;2602752;54;20026;31
2023/01/06 11:36:36;;;;;;;11.80;5.05;;;5.40;99.90;;;;;;2603282;54;20034;31
2023/01/06 11:39:16;;;;;;;12.45;5.10;;;5.50;99.90;;;;;;2603648;54;20029;31
2023/01/06 11:41:53;;;;;;;10.82;5.50;;;5.40;99.90;;;;;;2603473;54;20088;31
2023/01/06 11:44:34;;;;;;;10.70;5.72;;;5.50;99.90;;;;;;2603590;54;20049;31
2023/01/06 11:47:14;;;;;;;8.77;4.80;;;5.50;99.90;;;;;;2603577;54;20026;31
2023/01/06 11:49:53;;;;;;;9.38;5.18;;;5.50;99.90;;;;;;2603305;54;20830;31
2023/01/06 11:52:30;;;;;;;13.18;5.43;;;5.60;99.90;;;;;;2603559;54;20026;31
2023/01/06 11:55:21;;;;;;;14.77;6.03;;;5.60;99.90;;;;;;2603425;54;20023;31
2023/01/06 11:57:58;;;;;;;11.85;7.90;;;5.60;99.90;;;;;;2609893;39;20877;31
2023/01/06 12:00:38;;;;;;;11.00;5.38;;;5.70;99.90;;;;;;2603328;54;20049;31
2023/01/06 12:03:18;;;;;;;11.45;5.65;;;5.70;99.90;;;;;;2603326;54;20030;31
2023/01/06 12:05:58;;;;;;;13.67;6.20;;;5.70;99.90;;;;;;2603617;54;20215;31
2023/01/06 12:08:35;;;;;;;9.65;5.43;;;5.70;99.90;;;;;;2621677;46;20037;31
2023/01/06 12:11:13;;;;;;;8.73;5.57;;;5.70;99.90;;;;;;2603213;54;20035;31
2023/01/06 12:13:50;;;;;;;12.43;6.50;;;5.70;99.90;;;;;;2603458;54;19958;31
2023/01/06 12:16:44;;;;;;;13.18;6.13;;;5.70;99.90;;;;;;2702150;39;21078;31
2023/01/06 12:19:20;;;;;;;11.53;5.60;;;5.70;99.90;;;;;;2603201;54;20029;31
2023/01/06 12:21:58;;;;;;;19.80;6.40;;;5.60;99.90;;;;;;2603610;54;20027;31
2023/01/06 12:24:35;;;;;;;11.63;6.45;;;5.60;99.90;;;;;;2603323;54;20050;31
2023/01/06 12:27:10;;;;;;;13.80;8.25;;;5.60;99.90;;;;;;2603382;54;20802;31
2023/01/06 12:29:46;;;;;;;16.63;8.10;;;5.60;99.90;;;;;;2603217;54;20026;31
2023/01/06 12:32:22;;;;;;;13.23;7.32;;;5.60;99.90;;;;;;2603249;54;20042;31
2023/01/06 12:34:59;;;;;;;11.43;6.72;;;5.60;99.90;;;;;;2603189;54;20027;31
2023/01/06 12:37:39;;;;;;;13.47;7.07;;;5.60;99.90;;;;;;2603205;54;20875;31
2023/01/06 12:40:18;;;;;;;15.05;6.97;;;5.60;99.90;;;;;;2603443;54;20053;31
2023/01/06 12:42:55;;;;;;;12.15;6.88;;;5.60;99.90;;;;;;2603139;54;20022;31
2023/01/06 12:45:34;;;;;;;14.65;7.45;;;5.60;99.90;;;;;;2603111;54;20061;31
2023/01/06 12:48:19;;;;;;;11.50;7.40;;;5.60;99.90;;;;;;2603001;54;20861;31
2023/01/06 12:50:56;;;;;;;15.15;7.32;;;5.60;99.90;;;;;;2603369;54;20100;31
2023/01/06 12:53:36;;;;;;;14.30;7.82;;;5.70;99.90;;;;;;2603345;54;20097;31
2023/01/06 12:58:47;;;;;;;11.73;7.72;;;5.70;99.90;;;;;;2603226;54;20898;31
2023/01/06 13:01:26;;;;;;;18.35;10.82;;;5.70;99.90;;;;;;2603223;54;20049;31
2023/01/06 13:04:10;;;;;;;12.20;7.40;;;5.70;99.90;;;;;;2603117;54;20081;31
2023/01/06 13:07:07;;;;;;;16.30;9.40;;;5.70;99.90;;;;;;2603284;54;20027;31
2023/01/06 13:10:06;;;;;;;13.80;8.68;;;5.70;99.90;;;;;;2603269;54;20856;31
2023/01/06 13:13:00;;;;;;;15.85;7.78;;;5.70;99.90;;;;;;2602906;54;20026;31
2023/01/06 13:15:35;;;;;;;17.35;8.70;;;5.70;99.90;;;;;;2603178;54;20843;31
2023/01/06 13:18:13;;;;;;;16.10;8.45;;;5.70;99.90;;;;;;2603244;54;20026;31
2023/01/06 13:20:51;;;;;;;16.60;9.05;;;5.70;99.90;;;;;;2603034;54;20042;31
2023/01/06 13:23:36;;;;;;;16.20;9.45;;;5.70;99.90;;;;;;2603089;54;20875;31
2023/01/06 13:26:26;;;;;;;16.20;9.70;;;5.70;99.90;;;;;;2602747;54;20863;31
2023/01/06 13:29:05;;;;;;;15.57;7.87;;;5.80;99.90;;;;;;2603055;54;20031;31
2023/01/06 13:32:08;;;;;;;17.33;8.85;;;5.80;99.90;;;;;;2603560;54;20246;31
2023/01/06 13:34:59;;;;;;;13.50;7.93;;;5.80;99.90;;;;;;2603486;54;20993;31
2023/01/06 13:37:39;;;;;;;15.35;9.15;;;5.80;99.90;;;;;;2603728;54;20145;31
2023/01/06 13:40:15;;;;;;;15.52;9.20;;;5.80;99.90;;;;;;2603729;54;20089;31
2023/01/06 13:42:54;;;;;;;;;;;5.80;99.90;;;;;;2604088;54;20913;31
2023/01/06 13:45:30;;;;;;;14.25;8.80;;;5.80;99.90;;;;;;2604074;54;19942;31
2023/01/06 13:48:07;;;;;;;18.90;9.95;;;5.90;99.90;;;;;;2603840;54;20831;31
2023/01/06 13:50:42;;;;;;;20.05;10.80;;;5.80;99.90;;;;;;2603776;54;20899;31
2023/01/06 13:53:19;;;;;;;16.15;10.38;;;5.90;99.90;;;;;;2603931;54;20058;31
2023/01/06 13:56:23;;;;;;;25.50;10.80;;;5.90;99.90;;;;;;2603704;54;20822;31
2023/01/06 13:59:22;;;;;;;21.52;10.93;;;5.90;99.90;;;;;;2603792;54;21027;31
2023/01/06 14:01:58;;;;;;;19.08;11.70;;;6.00;99.90;;;;;;2603476;54;20862;31
2023/01/06 14:05:00;;;;;;;18.40;10.70;;;6.00;99.90;;;;;;2603938;54;20050;31
2023/01/06 14:07:34;;;;;;;21.00;11.40;;;6.00;99.90;;;;;;2603788;54;20833;31
2023/01/06 14:10:18;;;;;;;22.80;12.10;;;6.00;99.90;;;;;;2603758;54;20853;31
2023/01/06 14:12:55;;;;;;;21.20;12.13;;;6.10;99.90;;;;;;2603482;54;20860;31
2023/01/06 14:15:32;;;;;;;;;;;6.10;99.90;;;;;;2603880;54;20031;31
2023/01/06 14:18:07;;;;;;;20.90;11.65;;;6.10;99.90;;;;;;2603804;54;19992;31
2023/01/06 14:20:41;;;;;;;17.88;10.88;;;6.20;99.90;;;;;;2602946;54;22374;31